Shiloh, Illinois
Current Conditions -  °F | °C
As of 12:58 PM on Tuesday 27 Jan 2015 (Local Time) from KBLV Reporting Station
Overcast Overcast  
Wind Chill: 35°   Ceiling: 3000
Heat Index: 42°   Visibility: 10mi
Dew Point: 32°   Wind: 14mph
Humidity: 67%   Direction: 10°N
Pressure: 30.14"   Gusts: NA
Location:  38.5093°N, 89.8955°W
Report Text: KBLV 271858Z AUTO 01012KT 10SM OVC030 06/00 A3014 RMK AO2 SLP213 T00571001 VISNO RWY14L CHINO RWY14L $
Loading
Personal Weather Stations






























Interactive Weather Map New forecast layout! Learn more

10-Day Weather Forecast

Advertisements
Track Severe Weather on mobile